Time;durP1;ratioP1;P1;durP2;ratioP2;P2;SDS_P1;SDS_P2;PMS_P1;PMS_P2;Temp;Humidity;BMP_temperature;BMP_pressure;BME280_temperature;BME280_humidity;BME280_pressure;Samples;Min_cycle;Max_cycle;Signal;HPM_P1;HPM_P2
2021/05/10 00:00:37;;;;;;;9.18;1.73;;;19.10;86.00;;;;;;3531234;40;20095;-61
2021/05/10 00:03:03;;;;;;;2.95;1.63;;;19.10;86.50;;;;;;3531180;40;20038;-61
2021/05/10 00:05:28;;;;;;;6.70;1.50;;;19.00;87.00;;;;;;3530470;40;20059;-61
2021/05/10 00:07:54;;;;;;;3.78;1.60;;;18.90;87.10;;;;;;3530794;40;20682;-61
2021/05/10 00:10:20;;;;;;;7.75;2.15;;;18.80;87.60;;;;;;3529096;40;20035;-61
2021/05/10 00:12:47;;;;;;;4.50;1.70;;;18.80;88.40;;;;;;3531197;40;20070;-61
2021/05/10 00:15:14;;;;;;;7.35;1.70;;;18.80;87.50;;;;;;3528644;40;20059;-61
2021/05/10 00:17:39;;;;;;;2.78;1.85;;;18.80;87.30;;;;;;3531014;40;20042;-61
2021/05/10 00:20:06;;;;;;;4.32;1.90;;;18.70;87.80;;;;;;3531258;40;20366;-61
2021/05/10 00:22:31;;;;;;;3.30;1.80;;;18.70;87.40;;;;;;3531470;40;20033;-61
2021/05/10 00:24:57;;;;;;;1.85;1.48;;;18.70;87.80;;;;;;3532661;40;20098;-61
2021/05/10 00:27:23;;;;;;;5.95;1.60;;;18.70;87.50;;;;;;3532884;40;20332;-61
2021/05/10 00:29:48;;;;;;;4.72;1.67;;;18.60;87.90;;;;;;3532202;40;20105;-60
2021/05/10 00:32:14;;;;;;;6.68;1.77;;;18.50;88.20;;;;;;3531986;40;20050;-61
2021/05/10 00:34:40;;;;;;;7.55;1.85;;;18.40;88.90;;;;;;3530979;40;20039;-61
2021/05/10 00:37:05;;;;;;;2.47;1.70;;;18.40;90.00;;;;;;3531864;40;20035;-61
2021/05/10 00:39:31;;;;;;;5.38;1.80;;;18.40;88.90;;;;;;3531732;40;20031;-61
2021/05/10 00:41:57;;;;;;;4.43;1.92;;;18.30;89.70;;;;;;3531617;40;20046;-61
2021/05/10 00:44:23;;;;;;;3.17;1.85;;;18.30;89.60;;;;;;3538627;40;20039;-61
2021/05/10 00:46:52;;;;;;;5.70;1.90;;;18.10;90.30;;;;;;3531657;40;20059;-61
2021/05/10 00:49:19;;;;;;;3.17;1.60;;;18.00;91.00;;;;;;3530137;40;20038;-61
2021/05/10 00:51:44;;;;;;;7.13;1.80;;;18.10;90.60;;;;;;3531561;40;20031;-61
2021/05/10 00:54:10;;;;;;;3.17;1.70;;;18.00;90.70;;;;;;3530931;40;20096;-61
2021/05/10 00:56:36;;;;;;;2.75;1.70;;;17.90;91.20;;;;;;3531605;40;20035;-61
2021/05/10 00:59:02;;;;;;;2.00;1.50;;;17.80;91.70;;;;;;3531047;40;20035;-61
2021/05/10 01:01:27;;;;;;;3.90;1.60;;;17.70;92.20;;;;;;3531054;40;20042;-61
2021/05/10 01:03:54;;;;;;;5.22;1.73;;;17.60;92.80;;;;;;3530894;40;20106;-61
2021/05/10 01:06:21;;;;;;;4.65;1.55;;;17.40;93.50;;;;;;3530297;40;20049;-61
2021/05/10 01:08:47;;;;;;;3.90;1.63;;;17.30;94.30;;;;;;3528971;40;20422;-61
2021/05/10 01:11:13;;;;;;;2.80;1.75;;;17.10;94.70;;;;;;3528778;40;20037;-61
2021/05/10 01:13:39;;;;;;;1.60;1.50;;;17.00;95.80;;;;;;3528830;40;20042;-61
2021/05/10 01:16:05;;;;;;;8.45;1.90;;;16.90;96.40;;;;;;3530515;40;20082;-61
2021/05/10 01:18:32;;;;;;;2.28;1.60;;;16.80;96.60;;;;;;3530203;40;20112;-61
2021/05/10 01:20:59;;;;;;;6.05;1.60;;;16.70;97.10;;;;;;3529351;40;20049;-61
2021/05/10 01:23:25;;;;;;;4.53;1.85;;;16.60;97.70;;;;;;3530042;40;20405;-61
2021/05/10 01:25:51;;;;;;;5.05;1.88;;;16.50;97.90;;;;;;3528368;40;20035;-61
2021/05/10 01:28:17;;;;;;;2.88;1.65;;;16.30;98.30;;;;;;3530193;40;20042;-61
2021/05/10 01:30:48;;;;;;;5.03;2.00;;;16.30;98.60;;;;;;3530331;40;20498;-61
2021/05/10 01:33:14;;;;;;;2.72;1.67;;;16.10;99.10;;;;;;3530497;40;20046;-60
2021/05/10 01:35:42;;;;;;;2.88;1.65;;;16.00;99.50;;;;;;3530885;40;20420;-61
2021/05/10 01:38:08;;;;;;;3.60;1.70;;;15.90;99.80;;;;;;3530182;40;20145;-61
2021/05/10 01:40:34;;;;;;;3.35;1.83;;;15.90;99.90;;;;;;3537641;40;20544;-61
2021/05/10 01:43:01;;;;;;;2.28;1.80;;;15.80;99.90;;;;;;3530601;40;20049;-61
2021/05/10 01:45:27;;;;;;;4.30;1.60;;;15.80;99.90;;;;;;3530532;40;20051;-61
2021/05/10 01:47:59;;;;;;;7.18;2.00;;;15.80;99.80;;;;;;3529913;40;20654;-61
2021/05/10 01:50:25;;;;;;;3.08;1.60;;;15.80;99.90;;;;;;3530577;40;20042;-61
2021/05/10 01:52:52;;;;;;;4.20;1.88;;;15.70;99.90;;;;;;3530216;40;20129;-61
2021/05/10 01:55:17;;;;;;;3.50;1.70;;;15.70;99.90;;;;;;3530179;40;20035;-61
2021/05/10 01:57:51;;;;;;;3.90;1.80;;;15.70;99.90;;;;;;3530696;40;20046;-61
2021/05/10 02:00:21;;;;;;;2.10;1.90;;;15.60;99.90;;;;;;3529465;40;20043;-61
2021/05/10 02:02:47;;;;;;;4.07;1.65;;;15.50;99.90;;;;;;3530208;40;20043;-61
2021/05/10 02:05:18;;;;;;;2.38;1.55;;;15.40;99.90;;;;;;3529026;40;20384;-61
2021/05/10 02:07:50;;;;;;;7.45;1.70;;;15.50;99.90;;;;;;3529054;40;20078;-61
2021/05/10 02:10:51;;;;;;;3.53;1.65;;;15.40;99.90;;;;;;3526596;40;20039;-61
2021/05/10 02:13:19;;;;;;;3.83;1.90;;;15.40;99.90;;;;;;3528204;40;20419;-61
2021/05/10 02:15:56;;;;;;;4.90;1.50;;;15.40;99.90;;;;;;3530511;40;20110;-61
2021/05/10 02:18:26;;;;;;;3.13;1.70;;;15.40;99.90;;;;;;3530382;40;20047;-61
2021/05/10 02:20:52;;;;;;;3.80;1.95;;;15.30;99.90;;;;;;3529903;40;20034;-61
2021/05/10 02:23:23;;;;;;;3.35;1.52;;;15.30;99.90;;;;;;3530411;40;20034;-61
2021/05/10 02:25:53;;;;;;;2.40;1.55;;;15.30;99.90;;;;;;3529788;40;20039;-61
2021/05/10 02:28:23;;;;;;;2.55;1.70;;;15.40;99.90;;;;;;3530117;40;20041;-61
2021/05/10 02:30:49;;;;;;;8.70;1.98;;;15.30;99.90;;;;;;3531782;40;20444;-61
2021/05/10 02:33:18;;;;;;;5.10;1.67;;;15.30;99.90;;;;;;3531892;40;20522;-61
2021/05/10 02:35:44;;;;;;;7.10;1.50;;;15.30;99.90;;;;;;3531895;40;20610;-61
2021/05/10 02:38:11;;;;;;;3.65;1.52;;;15.30;99.90;;;;;;3532251;40;20066;-61
2021/05/10 02:40:37;;;;;;;7.53;2.15;;;15.30;99.90;;;;;;3531347;40;20034;-61
2021/05/10 02:43:03;;;;;;;4.70;1.70;;;15.30;99.80;;;;;;3532126;40;20085;-61
2021/05/10 02:45:30;;;;;;;4.82;2.00;;;15.20;99.90;;;;;;3531340;40;20066;-61
2021/05/10 02:47:55;;;;;;;4.93;1.67;;;15.10;99.90;;;;;;3531327;40;20078;-61
2021/05/10 02:50:23;;;;;;;2.38;1.50;;;15.10;99.90;;;;;;3528908;40;20054;-61
2021/05/10 02:52:50;;;;;;;5.25;1.70;;;15.10;99.90;;;;;;3530952;40;20050;-61
2021/05/10 02:55:17;;;;;;;2.17;1.50;;;15.10;99.90;;;;;;3531505;40;20669;-61
2021/05/10 02:57:44;;;;;;;5.97;1.80;;;15.10;99.90;;;;;;3530766;40;20071;-61
2021/05/10 03:00:12;;;;;;;4.05;1.60;;;15.00;99.90;;;;;;3530850;40;20102;-61
2021/05/10 03:02:38;;;;;;;1.92;1.52;;;15.00;99.90;;;;;;3530806;40;20047;-61
2021/05/10 03:05:06;;;;;;;4.10;1.55;;;14.90;99.90;;;;;;3531257;40;20302;-61
2021/05/10 03:07:34;;;;;;;2.80;1.70;;;14.90;99.90;;;;;;3532076;40;20115;-61
2021/05/10 03:10:00;;;;;;;4.95;1.70;;;14.90;99.90;;;;;;3532228;40;20046;-61
2021/05/10 03:12:28;;;;;;;8.43;1.90;;;14.80;99.90;;;;;;3532075;40;20048;-61
2021/05/10 03:14:53;;;;;;;4.10;1.70;;;14.70;99.90;;;;;;3532544;40;20043;-61
2021/05/10 03:17:19;;;;;;;2.88;1.77;;;14.70;99.90;;;;;;3533335;40;20106;-61
2021/05/10 03:19:45;;;;;;;4.43;1.73;;;14.70;99.90;;;;;;3532782;40;20050;-61
2021/05/10 03:22:11;;;;;;;2.45;1.50;;;14.60;99.90;;;;;;3533088;40;20132;-61
2021/05/10 03:24:37;;;;;;;4.50;1.70;;;14.60;99.90;;;;;;3532819;40;20098;-61
2021/05/10 03:27:03;;;;;;;2.92;1.52;;;14.50;99.90;;;;;;3532360;40;20034;-61
2021/05/10 03:29:29;;;;;;;2.85;1.65;;;14.50;99.90;;;;;;3532577;40;20046;-61
2021/05/10 03:31:54;;;;;;;3.45;1.50;;;14.50;99.90;;;;;;3531219;40;20045;-61
2021/05/10 03:34:20;;;;;;;13.05;1.98;;;14.40;99.90;;;;;;3531649;40;20054;-61
2021/05/10 03:36:46;;;;;;;4.10;2.22;;;14.40;99.90;;;;;;3531342;40;20487;-61
2021/05/10 03:39:12;;;;;;;2.00;1.60;;;14.40;99.90;;;;;;3522938;40;20030;-61
2021/05/10 03:41:37;;;;;;;7.25;1.88;;;14.30;99.90;;;;;;3531602;40;20038;-61
2021/05/10 03:44:03;;;;;;;5.03;1.60;;;14.30;99.90;;;;;;3532255;40;20050;-61
2021/05/10 03:46:29;;;;;;;2.38;1.73;;;14.30;99.90;;;;;;3531776;40;20037;-61
2021/05/10 03:48:55;;;;;;;3.35;1.90;;;14.30;99.90;;;;;;3532335;40;20130;-61
2021/05/10 03:51:20;;;;;;;3.95;1.85;;;14.40;99.90;;;;;;3530945;40;20041;-61
2021/05/10 03:53:46;;;;;;;3.65;1.60;;;14.40;99.90;;;;;;3531963;40;20114;-61
2021/05/10 03:56:12;;;;;;;5.95;1.80;;;14.30;99.90;;;;;;3532310;40;20050;-61
2021/05/10 03:58:39;;;;;;;5.90;1.80;;;14.30;99.90;;;;;;3531323;40;20059;-61
2021/05/10 04:01:05;;;;;;;10.07;2.03;;;14.30;99.90;;;;;;3530947;40;20721;-61
2021/05/10 04:03:37;;;;;;;3.42;1.77;;;14.20;99.90;;;;;;3531340;40;20049;-61
2021/05/10 04:08:51;;;;;;;3.55;1.60;;;14.30;99.90;;;;;;3531177;40;20050;-61
2021/05/10 04:14:01;;;;;;;8.10;1.77;;;14.30;99.90;;;;;;3532106;40;20042;-61
2021/05/10 04:16:28;;;;;;;6.22;1.90;;;14.30;99.90;;;;;;3532554;40;20087;-61
2021/05/10 04:18:54;;;;;;;3.97;2.13;;;14.30;99.90;;;;;;3532435;40;20321;-61
2021/05/10 04:21:20;;;;;;;2.92;1.90;;;14.30;99.90;;;;;;3531757;40;20091;-61
2021/05/10 04:23:45;;;;;;;2.97;1.75;;;14.40;99.90;;;;;;3532111;40;20039;-61
2021/05/10 04:26:11;;;;;;;6.53;1.88;;;14.50;99.90;;;;;;3531757;40;20041;-61
2021/05/10 04:28:38;;;;;;;6.10;2.08;;;14.60;99.90;;;;;;3531381;40;20039;-61
2021/05/10 04:31:04;;;;;;;3.08;1.63;;;14.70;99.90;;;;;;3531658;40;20095;-61
2021/05/10 04:33:33;;;;;;;4.38;1.65;;;14.80;99.90;;;;;;3531524;40;20420;-61
2021/05/10 04:36:00;;;;;;;8.65;2.00;;;14.70;99.90;;;;;;3529798;40;20038;-61
2021/05/10 04:38:27;;;;;;;2.97;1.50;;;14.80;99.90;;;;;;3531130;40;20121;-63
2021/05/10 04:40:58;;;;;;;7.03;2.10;;;15.00;99.90;;;;;;3530374;40;20054;-62
2021/05/10 04:43:24;;;;;;;4.68;2.47;;;15.10;99.80;;;;;;3531022;40;20051;-63
2021/05/10 04:45:50;;;;;;;6.88;3.40;;;15.20;99.30;;;;;;3531462;40;20035;-62
2021/05/10 04:48:16;;;;;;;5.93;2.03;;;15.40;98.50;;;;;;3531280;40;20158;-64
2021/05/10 04:50:41;;;;;;;12.40;1.90;;;15.70;98.20;;;;;;3531698;40;20117;-63
2021/05/10 04:53:14;;;;;;;4.10;1.50;;;15.90;97.70;;;;;;3531493;40;20098;-63
2021/05/10 04:55:40;;;;;;;2.28;1.42;;;15.90;97.20;;;;;;3531804;40;20654;-63
2021/05/10 04:58:06;;;;;;;6.15;1.75;;;16.00;97.10;;;;;;3531976;40;20055;-63
2021/05/10 05:00:33;;;;;;;5.70;1.60;;;16.10;96.70;;;;;;3531485;40;20042;-63
2021/05/10 05:02:59;;;;;;;4.97;1.80;;;16.20;96.50;;;;;;3532060;40;20432;-63
2021/05/10 05:05:24;;;;;;;5.93;1.60;;;16.40;95.30;;;;;;3531254;40;20047;-63
2021/05/10 05:07:50;;;;;;;9.38;5.65;;;16.50;94.80;;;;;;3531442;40;20429;-63
2021/05/10 05:10:16;;;;;;;4.38;1.63;;;16.60;94.60;;;;;;3531175;40;20045;-63
2021/05/10 05:12:42;;;;;;;6.95;1.40;;;16.50;94.50;;;;;;3531155;40;20027;-63
2021/05/10 05:15:09;;;;;;;4.80;1.73;;;16.50;93.90;;;;;;3522084;40;20031;-63
2021/05/10 05:17:35;;;;;;;7.80;1.65;;;;;;;;;;3531203;40;20035;-63
2021/05/10 05:20:03;;;;;;;10.35;1.90;;;16.60;93.40;;;;;;3530732;40;20047;-63
2021/05/10 05:22:29;;;;;;;6.55;1.83;;;;;;;;;;3530838;40;20397;-63
2021/05/10 05:24:56;;;;;;;2.88;1.63;;;16.80;94.30;;;;;;3531572;40;20035;-63
2021/05/10 05:27:23;;;;;;;5.68;1.83;;;16.70;94.00;;;;;;3530908;40;20098;-63
2021/05/10 05:29:49;;;;;;;7.18;2.00;;;16.70;94.10;;;;;;3531405;40;20063;-63
2021/05/10 05:32:14;;;;;;;8.73;1.77;;;16.80;94.00;;;;;;3531015;40;20172;-64
2021/05/10 05:34:40;;;;;;;14.98;4.47;;;16.80;93.60;;;;;;3529478;40;20068;-65
2021/05/10 05:37:06;;;;;;;4.57;2.03;;;16.90;93.20;;;;;;3531239;40;20042;-64
2021/05/10 05:39:32;;;;;;;9.60;3.22;;;16.90;93.80;;;;;;3530971;40;20038;-64
2021/05/10 05:41:57;;;;;;;6.82;1.77;;;16.90;94.10;;;;;;3537244;40;20121;-64
2021/05/10 05:44:23;;;;;;;6.57;2.00;;;17.10;91.80;;;;;;3530805;40;20027;-64
2021/05/10 05:46:50;;;;;;;4.85;1.70;;;17.20;91.50;;;;;;3530621;40;20038;-65
2021/05/10 05:49:16;;;;;;;6.55;2.90;;;17.30;91.60;;;;;;3530421;40;20417;-64
2021/05/10 05:51:46;;;;;;;6.93;1.98;;;17.30;91.30;;;;;;3530405;40;20039;-65
2021/05/10 05:54:12;;;;;;;3.05;1.48;;;17.40;90.90;;;;;;3530941;40;20031;-65
2021/05/10 05:56:38;;;;;;;3.22;1.90;;;17.60;90.80;;;;;;3530363;40;20050;-65
2021/05/10 05:59:04;;;;;;;3.22;1.30;;;17.60;91.40;;;;;;3526063;40;20031;-64
2021/05/10 06:01:30;;;;;;;9.07;1.70;;;17.60;90.50;;;;;;3532063;40;20097;-65
2021/05/10 06:03:56;;;;;;;2.38;1.60;;;17.70;90.50;;;;;;3531687;40;20035;-65
2021/05/10 06:06:22;;;;;;;2.75;1.60;;;17.80;90.00;;;;;;3531641;40;20133;-65
2021/05/10 06:08:48;;;;;;;4.70;1.67;;;17.80;90.60;;;;;;3528618;40;20043;-65
2021/05/10 06:11:14;;;;;;;3.38;1.63;;;17.90;89.90;;;;;;3531605;40;20188;-64
2021/05/10 06:13:40;;;;;;;4.95;1.42;;;17.90;89.90;;;;;;3531730;40;20039;-64
2021/05/10 06:16:06;;;;;;;5.80;1.52;;;18.10;89.70;;;;;;3527358;40;20410;-64
2021/05/10 06:18:32;;;;;;;5.97;1.38;;;18.00;89.30;;;;;;3530576;40;20077;-64
2021/05/10 06:21:05;;;;;;;2.33;1.23;;;18.10;89.90;;;;;;3532024;40;20038;-64
2021/05/10 06:23:31;;;;;;;4.55;1.38;;;18.20;87.40;;;;;;3531507;40;20681;-63
2021/05/10 06:25:57;;;;;;;4.70;2.10;;;18.20;87.80;;;;;;3529780;40;20038;-65
2021/05/10 06:28:23;;;;;;;2.75;1.30;;;18.30;87.60;;;;;;3531692;40;20623;-65
2021/05/10 06:30:49;;;;;;;7.13;1.67;;;18.30;86.60;;;;;;3530423;40;20038;-64
2021/05/10 06:33:15;;;;;;;8.70;1.48;;;18.20;87.70;;;;;;3531671;40;20075;-65
2021/05/10 06:35:40;;;;;;;3.67;1.52;;;18.20;87.40;;;;;;3532023;40;20046;-64
2021/05/10 06:38:06;;;;;;;4.95;1.50;;;18.40;86.00;;;;;;3532097;40;20039;-64
2021/05/10 06:40:32;;;;;;;4.32;1.80;;;18.60;86.40;;;;;;3530767;40;20031;-64
2021/05/10 06:42:57;;;;;;;5.88;1.63;;;18.70;85.20;;;;;;3532104;40;20039;-64
2021/05/10 06:45:24;;;;;;;4.75;2.03;;;;;;;;;;3531671;40;20047;-64
2021/05/10 06:47:51;;;;;;;3.58;2.05;;;;;;;;;;3531278;40;20035;-64
2021/05/10 06:50:17;;;;;;;4.03;1.83;;;;;;;;;;3530676;40;20049;-64
2021/05/10 06:52:43;;;;;;;8.18;1.77;;;19.20;81.20;;;;;;3531709;40;20556;-64
2021/05/10 06:55:09;;;;;;;7.68;2.00;;;19.20;82.30;;;;;;3532761;40;20041;-63
2021/05/10 06:57:35;;;;;;;4.10;1.70;;;19.20;83.40;;;;;;3531899;40;20055;-63
2021/05/10 07:00:01;;;;;;;3.35;1.63;;;19.30;81.70;;;;;;3531803;40;20443;-62
2021/05/10 07:02:27;;;;;;;2.50;1.25;;;19.30;81.70;;;;;;3531882;40;20038;-61
2021/05/10 07:04:53;;;;;;;3.33;1.73;;;19.50;83.10;;;;;;3532115;40;20030;-61
2021/05/10 07:07:19;;;;;;;3.58;1.77;;;19.60;81.20;;;;;;3532483;40;20093;-61
2021/05/10 07:09:46;;;;;;;5.72;1.95;;;19.60;81.90;;;;;;3530495;40;20431;-61
2021/05/10 07:12:13;;;;;;;4.30;1.50;;;19.70;79.40;;;;;;3532513;40;20359;-61
2021/05/10 07:14:41;;;;;;;4.65;1.67;;;19.70;80.20;;;;;;3531626;40;20035;-61
2021/05/10 07:17:08;;;;;;;5.43;1.65;;;19.90;79.70;;;;;;3531318;40;20130;-61
2021/05/10 07:19:34;;;;;;;1.80;1.63;;;20.10;78.30;;;;;;3531294;40;20049;-61
2021/05/10 07:22:00;;;;;;;5.90;1.42;;;20.10;79.60;;;;;;3531002;40;20053;-61
2021/05/10 07:24:26;;;;;;;3.67;1.58;;;20.30;77.40;;;;;;3530837;40;20051;-61
2021/05/10 07:26:51;;;;;;;6.25;1.52;;;20.30;76.00;;;;;;3529911;40;20041;-61
2021/05/10 07:29:17;;;;;;;4.75;1.40;;;20.30;76.60;;;;;;3531140;40;20035;-61
2021/05/10 07:31:43;;;;;;;3.80;1.73;;;20.50;75.80;;;;;;3531276;40;20039;-61
2021/05/10 07:34:09;;;;;;;5.20;1.40;;;21.00;75.20;;;;;;3532024;40;20672;-61
2021/05/10 07:36:34;;;;;;;5.38;1.63;;;20.70;74.90;;;;;;3532900;40;20043;-61
2021/05/10 07:39:00;;;;;;;6.10;1.30;;;20.80;74.20;;;;;;3532966;40;20516;-61
2021/05/10 07:41:26;;;;;;;3.97;1.58;;;20.90;73.30;;;;;;3532945;40;20039;-61
2021/05/10 07:43:51;;;;;;;3.38;1.70;;;21.10;74.40;;;;;;3532186;40;20901;-61
2021/05/10 07:46:17;;;;;;;5.90;1.50;;;21.20;74.70;;;;;;3532331;40;20038;-61
2021/05/10 07:48:43;;;;;;;2.30;1.58;;;21.40;73.00;;;;;;3533288;40;20085;-61
2021/05/10 07:51:08;;;;;;;5.65;1.50;;;21.60;71.30;;;;;;3532568;40;20030;-61
2021/05/10 07:53:34;;;;;;;2.35;1.60;;;21.80;71.40;;;;;;3531911;40;20368;-61
2021/05/10 07:56:00;;;;;;;3.50;1.30;;;22.00;70.40;;;;;;3532288;40;20067;-61
2021/05/10 07:58:26;;;;;;;6.68;1.58;;;22.10;71.40;;;;;;3532358;40;20178;-61
2021/05/10 08:01:01;;;;;;;7.97;1.80;;;22.30;70.80;;;;;;3532190;40;20051;-61
2021/05/10 08:03:29;;;;;;;2.50;1.48;;;22.40;69.00;;;;;;3531302;40;20058;-61
2021/05/10 08:05:55;;;;;;;4.15;1.70;;;22.40;68.40;;;;;;3532306;40;20031;-61
2021/05/10 08:08:25;;;;;;;3.22;1.65;;;22.60;70.40;;;;;;3531809;40;20091;-61
2021/05/10 08:10:51;;;;;;;4.95;1.55;;;22.90;68.20;;;;;;3530388;40;20783;-61
2021/05/10 08:13:17;;;;;;;5.65;1.42;;;23.10;67.70;;;;;;3531231;40;20039;-61
2021/05/10 08:15:44;;;;;;;6.57;1.15;;;23.10;68.80;;;;;;3531998;40;20063;-61
2021/05/10 08:18:13;;;;;;;9.32;1.83;;;23.40;68.00;;;;;;3531728;40;20037;-69
2021/05/10 08:20:40;;;;;;;5.65;1.67;;;23.20;64.80;;;;;;3531869;40;20098;-68
2021/05/10 08:23:07;;;;;;;3.83;1.40;;;23.30;65.00;;;;;;3531300;40;20499;-68
2021/05/10 08:25:33;;;;;;;5.05;1.80;;;23.50;67.20;;;;;;3531291;40;20444;-69
2021/05/10 08:27:58;;;;;;;3.15;1.65;;;23.50;64.10;;;;;;3531884;40;20035;-68
2021/05/10 08:30:24;;;;;;;3.95;1.50;;;23.60;65.40;;;;;;3531200;40;20561;-68
2021/05/10 08:32:51;;;;;;;2.35;1.40;;;23.60;65.00;;;;;;3531132;40;20322;-68
2021/05/10 08:35:17;;;;;;;5.43;1.70;;;23.90;64.50;;;;;;3531055;40;20423;-69
2021/05/10 08:37:43;;;;;;;2.40;1.52;;;24.10;62.30;;;;;;3531721;40;20062;-69
2021/05/10 08:40:09;;;;;;;2.05;1.40;;;24.10;62.70;;;;;;3531517;40;20118;-69
2021/05/10 08:42:35;;;;;;;8.55;1.70;;;24.20;63.40;;;;;;3531349;40;20045;-69
2021/05/10 08:45:01;;;;;;;2.35;1.70;;;24.50;63.80;;;;;;3531831;40;20039;-68
2021/05/10 08:47:33;;;;;;;3.58;1.70;;;24.80;62.30;;;;;;3538510;40;20554;-67
2021/05/10 08:50:05;;;;;;;2.17;1.35;;;25.10;61.60;;;;;;3531645;40;20066;-69
2021/05/10 08:52:33;;;;;;;3.97;1.77;;;25.00;60.90;;;;;;3530271;40;20093;-68
2021/05/10 08:54:59;;;;;;;5.68;1.70;;;24.90;60.10;;;;;;3530324;40;20414;-69
2021/05/10 08:57:25;;;;;;;4.32;1.73;;;24.90;61.70;;;;;;3536011;40;20046;-70
2021/05/10 08:59:50;;;;;;;3.38;1.45;;;25.20;61.50;;;;;;3526816;40;20039;-68
2021/05/10 09:02:32;;;;;;;5.47;1.50;;;25.50;62.80;;;;;;3529750;40;20136;-67
2021/05/10 09:05:12;;;;;;;10.27;2.05;;;26.00;60.50;;;;;;3530440;40;20039;-68
2021/05/10 09:07:38;;;;;;;4.88;1.73;;;26.00;60.30;;;;;;3529235;40;20137;-68
2021/05/10 09:10:10;;;;;;;4.40;1.48;;;26.20;60.20;;;;;;3530109;40;20059;-70
2021/05/10 09:12:55;;;;;;;14.25;8.50;;;26.30;59.50;;;;;;3530398;40;20031;-68
2021/05/10 09:15:21;;;;;;;2.80;1.50;;;26.50;60.30;;;;;;3530113;40;20050;-67
2021/05/10 09:18:08;;;;;;;6.53;1.92;;;26.40;57.20;;;;;;3530653;40;20038;-67
2021/05/10 09:20:39;;;;;;;2.40;1.35;;;26.30;57.10;;;;;;3530414;40;20054;-68
2021/05/10 09:23:09;;;;;;;3.22;1.55;;;26.00;57.10;;;;;;3530046;40;20043;-67
2021/05/10 09:25:46;;;;;;;9.07;1.77;;;26.00;58.20;;;;;;3528959;40;20038;-67
2021/05/10 09:28:17;;;;;;;3.45;1.83;;;26.10;57.70;;;;;;3529625;40;20129;-68
2021/05/10 09:30:49;;;;;;;7.50;1.50;;;26.20;58.20;;;;;;3529787;40;20039;-61
2021/05/10 09:33:24;;;;;;;5.10;1.75;;;26.40;58.50;;;;;;3530764;40;20321;-60
2021/05/10 09:36:04;;;;;;;5.30;2.80;;;26.50;56.90;;;;;;3530954;40;20053;-60
2021/05/10 09:38:31;;;;;;;6.88;1.50;;;26.90;58.20;;;;;;3530859;40;20039;-62
2021/05/10 09:40:58;;;;;;;2.22;1.65;;;26.90;57.00;;;;;;3530683;40;20031;-62
2021/05/10 09:43:33;;;;;;;3.25;1.67;;;27.00;57.60;;;;;;3530670;40;20884;-60
2021/05/10 09:46:03;;;;;;;3.65;1.63;;;27.40;56.00;;;;;;3530339;40;20117;-66
2021/05/10 09:48:33;;;;;;;2.63;1.35;;;27.60;55.30;;;;;;3530526;40;20121;-66
2021/05/10 09:51:13;;;;;;;3.70;1.40;;;27.80;57.50;;;;;;3531128;40;20305;-66
2021/05/10 09:53:51;;;;;;;2.70;1.60;;;27.70;56.20;;;;;;3529850;40;20043;-66
2021/05/10 09:56:19;;;;;;;2.30;1.33;;;27.30;55.10;;;;;;3529310;40;20065;-60
2021/05/10 09:58:50;;;;;;;3.33;1.80;;;27.70;54.80;;;;;;3529919;40;20506;-61
2021/05/10 10:01:17;;;;;;;2.97;1.55;;;27.80;55.20;;;;;;3529311;40;20058;-60
2021/05/10 10:03:50;;;;;;;7.78;1.75;;;27.80;52.80;;;;;;3530463;40;20049;-66
2021/05/10 10:06:18;;;;;;;9.18;2.33;;;27.90;54.70;;;;;;3529085;40;20070;-61
2021/05/10 10:08:49;;;;;;;17.10;7.28;;;28.20;52.60;;;;;;3530145;40;20046;-63
2021/05/10 10:11:25;;;;;;;4.78;1.70;;;28.30;53.70;;;;;;3530439;40;20042;-63
2021/05/10 10:13:52;;;;;;;3.40;1.45;;;28.40;53.30;;;;;;3530308;40;20038;-64
2021/05/10 10:16:21;;;;;;;2.13;1.60;;;28.20;52.80;;;;;;3536098;40;20043;-63
2021/05/10 10:18:48;;;;;;;15.15;1.60;;;28.30;54.10;;;;;;3520914;40;20047;-63
2021/05/10 10:21:16;;;;;;;3.22;1.55;;;27.90;52.80;;;;;;3530072;40;20096;-63
2021/05/10 10:23:47;;;;;;;2.65;1.30;;;27.80;52.10;;;;;;3529930;40;20043;-61
2021/05/10 10:26:16;;;;;;;2.42;1.70;;;28.00;53.70;;;;;;3530218;40;20031;-61
2021/05/10 10:28:46;;;;;;;2.95;1.40;;;28.10;53.70;;;;;;3529526;40;20475;-61
2021/05/10 10:31:18;;;;;;;4.13;1.27;;;28.30;52.00;;;;;;3529458;40;20106;-68
2021/05/10 10:33:58;;;;;;;4.03;1.48;;;28.10;51.70;;;;;;3528551;40;20043;-72
2021/05/10 10:36:35;;;;;;;4.28;1.45;;;28.20;51.60;;;;;;3530222;40;20055;-71
2021/05/10 10:39:21;;;;;;;2.70;1.55;;;28.60;52.80;;;;;;3527629;40;20046;-69
2021/05/10 10:41:56;;;;;;;5.30;1.55;;;29.10;51.80;;;;;;3528773;40;20031;-71
2021/05/10 10:44:30;;;;;;;3.20;1.52;;;29.00;51.40;;;;;;3529696;40;20046;-69
2021/05/10 10:46:57;;;;;;;1.77;1.50;;;29.20;51.50;;;;;;3531168;40;20057;-67
2021/05/10 10:49:31;;;;;;;6.97;1.60;;;29.30;51.30;;;;;;3531490;40;20141;-70
2021/05/10 10:51:58;;;;;;;9.13;1.97;;;29.20;50.00;;;;;;3530517;40;20043;-69
2021/05/10 10:54:26;;;;;;;7.32;1.77;;;29.30;50.80;;;;;;3529798;40;20072;-69
2021/05/10 10:57:00;;;;;;;3.53;1.30;;;29.50;50.20;;;;;;3530867;40;20145;-69
2021/05/10 10:59:37;;;;;;;4.78;1.23;;;29.80;50.30;;;;;;3530348;40;20090;-69
2021/05/10 11:02:21;;;;;;;1.65;1.35;;;29.50;48.90;;;;;;3530956;40;20041;-69
2021/05/10 11:05:06;;;;;;;5.72;1.67;;;29.30;48.80;;;;;;3530998;40;20039;-69
2021/05/10 11:10:49;;;;;;;3.10;1.20;;;30.00;50.30;;;;;;3529728;40;20536;-68
2021/05/10 11:13:28;;;;;;;3.00;1.40;;;30.10;48.50;;;;;;3528295;40;20028;-69
2021/05/10 11:15:55;;;;;;;6.57;1.35;;;30.00;50.20;;;;;;3530490;40;20026;-70
2021/05/10 11:18:44;;;;;;;3.83;1.38;;;30.20;49.30;;;;;;3522138;40;20039;-72
2021/05/10 11:21:22;;;;;;;2.10;1.30;;;30.40;47.60;;;;;;3530852;40;20464;-70
2021/05/10 11:23:57;;;;;;;2.63;1.30;;;30.40;48.80;;;;;;3532106;40;20090;-69
2021/05/10 11:26:52;;;;;;;3.72;1.30;;;30.80;46.30;;;;;;3531438;40;20043;-70
2021/05/10 11:29:27;;;;;;;4.28;1.27;;;31.00;47.00;;;;;;3525263;40;20087;-60
2021/05/10 11:31:57;;;;;;;3.95;1.20;;;30.50;46.00;;;;;;3530500;40;20324;-60
2021/05/10 11:34:29;;;;;;;3.78;1.23;;;30.50;47.20;;;;;;3530396;40;20043;-60
2021/05/10 11:36:56;;;;;;;3.33;1.30;;;30.80;46.50;;;;;;3530974;40;20601;-61
2021/05/10 11:39:27;;;;;;;1.83;1.20;;;30.30;45.00;;;;;;3529360;40;20622;-65
2021/05/10 11:42:06;;;;;;;3.03;1.20;;;29.70;46.40;;;;;;3530975;40;20381;-64
2021/05/10 11:44:38;;;;;;;3.17;1.52;;;29.70;46.70;;;;;;3529873;40;20072;-64
2021/05/10 11:47:06;;;;;;;2.25;1.25;;;30.30;46.50;;;;;;3531073;40;20064;-64
2021/05/10 11:49:50;;;;;;;1.60;1.15;;;31.30;45.70;;;;;;3531134;40;20599;-60
2021/05/10 11:52:20;;;;;;;11.35;6.47;;;31.90;45.70;;;;;;3537278;40;20043;-60
2021/05/10 11:54:47;;;;;;;7.50;1.75;;;31.80;44.80;;;;;;3530780;40;20046;-60
2021/05/10 11:57:15;;;;;;;3.60;2.08;;;31.90;45.00;;;;;;3530313;40;20039;-60
2021/05/10 11:59:47;;;;;;;7.18;1.90;;;32.10;43.70;;;;;;3530913;40;20042;-60
2021/05/10 12:02:23;;;;;;;2.10;0.95;;;31.30;43.80;;;;;;3532636;40;20049;-63
2021/05/10 12:05:02;;;;;;;1.60;1.08;;;31.80;42.60;;;;;;3539377;40;20070;-59
2021/05/10 12:07:29;;;;;;;5.82;1.10;;;31.90;42.30;;;;;;3531029;40;20442;-60
2021/05/10 12:09:57;;;;;;;5.60;1.30;;;32.10;43.40;;;;;;3531739;40;20349;-60
2021/05/10 12:12:28;;;;;;;3.28;1.20;;;32.00;43.90;;;;;;3532246;40;20060;-59
2021/05/10 12:14:57;;;;;;;6.40;1.33;;;31.80;42.50;;;;;;3531303;40;20050;-66
2021/05/10 12:17:24;;;;;;;3.83;1.10;;;32.10;42.50;;;;;;3531963;40;20103;-66
2021/05/10 12:19:50;;;;;;;1.20;1.10;;;32.50;42.10;;;;;;3532257;40;20075;-66
2021/05/10 12:22:20;;;;;;;5.28;1.55;;;31.90;43.50;;;;;;3531819;40;20074;-66
2021/05/10 12:24:55;;;;;;;1.50;1.17;;;31.60;43.20;;;;;;3531114;40;20109;-66
2021/05/10 12:27:22;;;;;;;2.95;1.17;;;31.60;43.40;;;;;;3531528;40;20043;-66
2021/05/10 12:29:49;;;;;;;7.88;2.15;;;32.20;44.40;;;;;;3538203;40;20448;-66
2021/05/10 12:32:14;;;;;;;3.25;1.20;;;32.70;43.30;;;;;;3531885;40;20042;-66
2021/05/10 12:34:41;;;;;;;3.47;1.65;;;32.90;44.20;;;;;;3532014;40;20109;-66
2021/05/10 12:37:07;;;;;;;3.65;1.40;;;32.80;45.30;;;;;;3531932;40;20487;-66
2021/05/10 12:39:33;;;;;;;2.60;1.40;;;33.00;44.50;;;;;;3531916;40;20035;-66
2021/05/10 12:42:20;;;;;;;3.13;1.30;;;33.10;43.70;;;;;;3532100;40;20412;-65
2021/05/10 12:44:56;;;;;;;2.20;1.20;;;33.20;43.50;;;;;;3530580;40;20145;-66
2021/05/10 12:47:43;;;;;;;7.25;1.50;;;33.50;44.90;;;;;;3531651;40;20043;-66
2021/05/10 12:50:11;;;;;;;1.77;1.50;;;33.90;43.50;;;;;;3531136;40;20045;-66
2021/05/10 12:52:51;;;;;;;3.40;1.23;;;34.20;43.70;;;;;;3538262;40;20034;-66
2021/05/10 12:55:21;;;;;;;2.08;1.50;;;34.20;43.20;;;;;;3530904;40;20304;-66
2021/05/10 12:57:49;;;;;;;3.95;1.30;;;34.30;43.20;;;;;;3531585;40;20034;-66
2021/05/10 13:00:37;;;;;;;2.63;1.27;;;33.60;43.10;;;;;;3531441;40;20114;-66
2021/05/10 13:03:04;;;;;;;8.45;1.40;;;33.90;43.50;;;;;;3530496;40;20078;-67